Time;durP1;ratioP1;P1;durP2;ratioP2;P2;SDS_P1;SDS_P2;PMS_P1;PMS_P2;Temp;Humidity;BMP_temperature;BMP_pressure;BME280_temperature;BME280_humidity;BME280_pressure;Samples;Min_cycle;Max_cycle;Signal;HPM_P1;HPM_P2
2021/03/13 00:02:45;;;;;;;29.50;16.25;;;;;;;3.19;62.77;99293.05;2217487;80;31145;-66
2021/03/13 00:05:47;;;;;;;26.70;14.73;;;;;;;3.19;62.66;99290.41;2244131;78;33100;-67
2021/03/13 00:08:49;;;;;;;38.05;16.97;;;;;;;3.21;62.73;99278.91;2219648;78;28598;-63
2021/03/13 00:11:52;;;;;;;28.02;16.73;;;;;;;3.23;62.72;99283.69;2217584;80;27740;-64
2021/03/13 00:14:54;;;;;;;35.95;17.65;;;;;;;3.24;62.87;99287.59;2217507;80;28870;-67
2021/03/13 00:17:57;;;;;;;25.27;13.18;;;;;;;3.26;62.84;99284.44;2216085;80;31137;-66
2021/03/13 00:21:00;;;;;;;29.07;12.13;;;;;;;3.30;62.85;99279.91;2179308;78;33192;-64
2021/03/13 00:24:02;;;;;;;34.67;14.85;;;;;;;3.32;62.83;99282.02;2180946;80;31168;-63
2021/03/13 00:27:05;;;;;;;23.85;11.68;;;;;;;3.34;62.77;99278.42;2216597;80;27721;-65
2021/03/13 00:30:09;;;;;;;30.23;13.05;;;;;;;3.37;62.87;99268.64;2221750;78;28863;-63
2021/03/13 00:33:18;;;;;;;32.75;16.55;;;;;;;3.38;62.82;99258.45;2217205;80;32086;-62
2021/03/13 00:36:20;;;;;;;23.38;10.20;;;;;;;3.38;62.81;99249.19;2215431;80;33053;-64
2021/03/13 00:39:23;;;;;;;36.75;16.40;;;;;;;3.39;62.82;99249.13;2178929;81;28864;-65
2021/03/13 00:42:25;;;;;;;37.03;16.97;;;;;;;3.42;62.98;99250.78;2214275;80;28138;-64
2021/03/13 00:45:28;;;;;;;22.17;9.58;;;;;;;3.44;62.90;99244.97;2217178;80;29257;-67
2021/03/13 00:48:30;;;;;;;19.85;7.37;;;;;;;3.44;62.90;99245.85;2211787;80;32019;-65
2021/03/13 00:51:32;;;;;;;18.90;8.50;;;;;;;3.47;62.92;99244.42;2179637;81;32744;-63
2021/03/13 00:54:34;;;;;;;17.75;8.65;;;;;;;3.49;63.00;99242.55;2185670;81;29896;-66
2021/03/13 00:57:37;;;;;;;18.45;8.18;;;;;;;3.51;62.99;99241.19;2204777;80;28264;-71
2021/03/13 01:00:39;;;;;;;16.25;6.42;;;;;;;3.54;62.99;99233.58;2224089;80;28940;-69
2021/03/13 01:03:41;;;;;;;14.75;6.50;;;;;;;3.58;62.99;99227.25;2239784;78;31204;-66
2021/03/13 01:06:43;;;;;;;16.30;5.75;;;;;;;3.61;62.99;99220.52;2173666;81;33121;-69
2021/03/13 01:09:47;;;;;;;15.13;6.12;;;;;;;3.65;62.97;99212.83;2179770;81;28860;-67
2021/03/13 01:12:49;;;;;;;15.80;6.03;;;;;;;3.68;62.88;99214.04;2142371;82;27838;-64
2021/03/13 01:15:51;;;;;;;13.55;5.83;;;;;;;3.70;62.84;99214.00;2148785;82;29702;-66
2021/03/13 01:18:53;;;;;;;13.88;5.72;;;;;;;3.72;62.91;99214.81;2117408;82;32170;-63
2021/03/13 01:21:56;;;;;;;11.38;5.45;;;;;;;3.76;62.98;99211.09;2112490;82;32254;-64
2021/03/13 01:24:58;;;;;;;19.80;5.95;;;;;;;3.83;62.94;99207.73;2112455;84;29906;-64
2021/03/13 01:28:00;;;;;;;14.28;4.87;;;;;;;3.89;62.90;99199.08;2132742;82;27685;-66
2021/03/13 01:31:02;;;;;;;13.83;4.17;;;;;;;3.95;62.88;99198.84;2148185;82;28786;-65
2021/03/13 01:34:04;;;;;;;11.93;3.95;;;;;;;4.04;62.86;99194.96;2134489;82;31145;-63
2021/03/13 01:37:06;;;;;;;10.03;3.75;;;;;;;4.12;62.79;99193.32;2147637;82;33123;-68
2021/03/13 01:40:14;;;;;;;10.30;4.28;;;;;;;4.20;62.74;99193.88;2147800;82;28664;-66
2021/03/13 01:43:15;;;;;;;9.15;4.08;;;;;;;4.26;62.71;99184.80;2149029;82;27738;-66
2021/03/13 01:46:17;;;;;;;13.38;4.55;;;;;;;4.32;62.54;99175.25;2148894;82;30314;-65
2021/03/13 01:49:25;;;;;;;11.83;4.50;;;;;;;4.39;62.45;99179.83;2113130;82;32131;-68
2021/03/13 01:52:27;;;;;;;17.10;7.78;;;;;;;4.44;62.43;99165.92;2119266;83;33193;-66
2021/03/13 01:55:30;;;;;;;18.55;6.35;;;;;;;4.49;62.32;99167.05;2144982;83;28971;-65
2021/03/13 01:58:32;;;;;;;12.53;5.50;;;;;;;4.54;62.24;99167.72;2144116;82;27636;-66
2021/03/13 02:01:34;;;;;;;14.23;5.42;;;;;;;4.59;62.22;99162.20;2143873;83;28904;-66
2021/03/13 02:04:40;;;;;;;13.90;5.08;;;;;;;4.63;62.10;99162.03;2131275;83;31155;-66
2021/03/13 02:07:50;;;;;;;16.60;5.35;;;;;;;4.66;62.10;99167.66;2135138;83;33576;-66
2021/03/13 02:11:29;;;;;;;14.23;5.28;;;;;;;4.69;61.97;99158.24;2147530;82;28925;-66
2021/03/13 02:14:48;;;;;;;12.43;4.60;;;;;;;4.69;61.88;99149.80;2144121;82;28444;-66
2021/03/13 02:18:20;;;;;;;8.70;3.70;;;;;;;4.70;61.89;99149.36;2127592;82;28875;-67
2021/03/13 02:21:42;;;;;;;11.85;4.22;;;;;;;4.71;61.81;99151.08;2053110;85;31094;-65
2021/03/13 02:25:07;;;;;;;10.55;3.87;;;;;;;4.70;61.84;99148.03;2024723;87;33222;-66
2021/03/13 02:28:23;;;;;;;6.45;3.55;;;;;;;4.72;61.83;99148.80;2039241;86;28935;-67
2021/03/13 02:31:36;;;;;;;7.90;3.10;;;;;;;4.78;61.80;99138.41;2248769;78;28609;-65
2021/03/13 02:34:40;;;;;;;7.00;2.58;;;;;;;4.76;61.86;99143.75;2226784;79;27654;-66
2021/03/13 02:37:47;;;;;;;5.87;2.62;;;;;;;4.81;61.88;99135.14;2213003;79;28833;-62
2021/03/13 02:40:50;;;;;;;5.75;2.80;;;;;;;4.88;62.36;99135.72;2212088;79;31243;-63
2021/03/13 02:43:56;;;;;;;6.97;2.58;;;;;;;4.95;61.79;99125.23;2186748;80;33122;-64
2021/03/13 02:46:58;;;;;;;8.83;2.75;;;;;;;5.02;61.66;99129.31;2195933;80;28571;-63
2021/03/13 02:50:05;;;;;;;7.08;2.80;;;;;;;5.11;61.54;99121.39;2206996;80;27618;-65
2021/03/13 02:53:08;;;;;;;7.17;2.27;;;;;;;5.22;61.48;99126.66;2179188;81;28815;-64
2021/03/13 02:56:11;;;;;;;6.67;2.35;;;;;;;5.32;61.23;99124.84;2188720;80;30822;-66
2021/03/13 02:59:16;;;;;;;6.97;2.80;;;;;;;5.43;61.12;99122.16;2218112;80;35384;-66
2021/03/13 03:02:17;;;;;;;;;;;;;;;5.50;61.12;99132.87;2220761;80;29553;-64
2021/03/13 03:05:23;;;;;;;4.70;2.40;;;;;;;5.58;60.99;99137.81;2198102;80;27709;-66
2021/03/13 03:08:25;;;;;;;5.87;2.75;;;;;;;5.64;60.83;99136.20;2203783;80;28088;-63
2021/03/13 03:11:28;;;;;;;7.08;2.70;;;;;;;5.72;60.72;99149.11;2209187;80;33608;-66
2021/03/13 03:14:31;;;;;;;7.03;2.58;;;;;;;5.80;60.82;99143.42;2179595;80;33543;-63
2021/03/13 03:17:34;;;;;;;8.48;2.47;;;;;;;5.86;60.89;99146.64;2196523;80;28952;-66
2021/03/13 03:20:37;;;;;;;6.50;2.60;;;;;;;5.92;61.14;99146.80;2179332;81;27758;-65
2021/03/13 03:23:40;;;;;;;5.87;2.70;;;;;;;5.97;61.19;99156.75;2179017;81;28903;-64
2021/03/13 03:26:42;;;;;;;4.78;2.62;;;;;;;6.00;61.31;99164.61;2194676;80;32140;-63
2021/03/13 03:29:44;;;;;;;6.75;2.70;;;;;;;6.01;61.48;99169.00;2211673;80;32731;-68
2021/03/13 03:32:50;;;;;;;10.23;2.92;;;;;;;6.04;61.68;99174.62;2189001;80;29048;-69
2021/03/13 03:35:52;;;;;;;6.37;2.52;;;;;;;6.06;61.80;99175.41;2138111;81;28062;-66
2021/03/13 03:38:56;;;;;;;4.80;2.60;;;;;;;6.08;61.93;99165.56;2113350;84;29986;-64
2021/03/13 03:42:02;;;;;;;7.45;3.22;;;;;;;6.09;61.91;99167.29;2113887;84;31152;-64
2021/03/13 03:45:15;;;;;;;4.67;2.58;;;;;;;6.11;61.89;99172.52;2129619;82;28202;-64
2021/03/13 03:48:20;;;;;;;5.55;2.70;;;;;;;6.10;62.08;99166.36;2149772;82;28872;-65
2021/03/13 03:51:28;;;;;;;7.45;3.05;;;;;;;6.10;62.06;99164.15;2119193;82;27716;-68
2021/03/13 03:54:35;;;;;;;9.93;3.10;;;;;;;6.08;62.04;99167.73;2143432;82;28838;-64
2021/03/13 03:57:54;;;;;;;;;;;;;;;;;;;;;
2021/03/13 04:00:58;;;;;;;5.93;2.70;;;;;;;6.16;62.00;99174.01;2247181;78;27638;-62
2021/03/13 04:04:02;;;;;;;6.87;3.00;;;;;;;6.12;62.02;99168.47;2240214;78;27682;-63
2021/03/13 04:07:04;;;;;;;7.37;2.70;;;;;;;6.13;61.95;99166.17;2188241;81;28891;-62
2021/03/13 04:10:11;;;;;;;6.40;3.20;;;;;;;6.14;61.95;99161.73;2189364;80;31590;-63
2021/03/13 04:13:17;;;;;;;5.97;3.02;;;;;;;6.14;61.90;99169.23;2179989;80;34001;-63
2021/03/13 04:16:29;;;;;;;7.78;3.50;;;;;;;6.16;61.88;99167.36;2216229;80;28585;-64
2021/03/13 04:19:31;;;;;;;5.65;2.65;;;;;;;6.16;61.87;99173.16;2192740;80;27766;-63
2021/03/13 04:22:35;;;;;;;5.62;2.98;;;;;;;6.17;61.82;99178.87;2175639;80;29707;-66
2021/03/13 04:25:38;;;;;;;7.25;3.45;;;;;;;6.15;61.82;99178.93;2173757;80;32048;-65
2021/03/13 04:28:40;;;;;;;7.17;3.67;;;;;;;6.14;61.85;99179.02;2180580;80;33183;-67
2021/03/13 04:31:43;;;;;;;7.08;3.67;;;;;;;6.11;61.91;99181.38;2200715;80;28865;-65
2021/03/13 04:34:46;;;;;;;8.13;3.15;;;;;;;6.08;61.95;99184.17;2179354;81;27630;-64
2021/03/13 04:37:49;;;;;;;6.78;3.35;;;;;;;6.04;61.97;99174.62;2179350;81;28839;-65
2021/03/13 04:40:53;;;;;;;9.05;3.40;;;;;;;6.02;61.95;99183.14;2170553;80;31153;-66
2021/03/13 04:43:55;;;;;;;7.28;3.55;;;;;;;5.98;62.05;99178.41;2179471;81;34179;-65
2021/03/13 04:46:58;;;;;;;9.80;4.00;;;;;;;5.91;62.07;99179.19;2199698;80;28889;-65
2021/03/13 04:49:59;;;;;;;10.30;3.72;;;;;;;5.85;62.09;99177.30;2218144;80;27724;-64
2021/03/13 04:53:02;;;;;;;9.93;4.12;;;;;;;5.78;62.17;99179.39;2199914;80;28891;-63
2021/03/13 04:56:05;;;;;;;9.93;4.00;;;;;;;5.71;62.25;99169.49;2216605;80;31177;-64
2021/03/13 04:59:07;;;;;;;9.23;4.10;;;;;;;5.63;62.29;99164.55;2210632;80;33120;-63
2021/03/13 05:02:12;;;;;;;6.12;3.35;;;;;;;5.55;62.39;99170.70;2163942;81;30013;-67
2021/03/13 05:05:15;;;;;;;8.95;4.00;;;;;;;5.47;62.37;99169.74;2183426;81;27712;-66
2021/03/13 05:08:17;;;;;;;7.40;3.55;;;;;;;5.43;62.39;99164.17;2153298;82;29661;-67
2021/03/13 05:11:22;;;;;;;8.20;3.87;;;;;;;5.40;62.47;99174.93;2151459;82;30399;-64
2021/03/13 05:14:27;;;;;;;7.67;3.52;;;;;;;5.36;62.54;99181.80;2114832;82;34467;-62
2021/03/13 05:17:40;;;;;;;13.27;3.77;;;;;;;5.36;62.57;99187.98;2321061;76;27673;-69
2021/03/13 05:20:42;;;;;;;6.75;3.10;;;;;;;5.27;62.59;99189.27;2266701;77;27710;-67
2021/03/13 05:23:44;;;;;;;8.68;3.65;;;;;;;5.25;62.72;99189.80;2287224;77;31149;-63
2021/03/13 05:26:46;;;;;;;7.37;3.30;;;;;;;5.24;62.76;99194.71;2293818;77;33495;-62
2021/03/13 05:29:49;;;;;;;7.25;3.72;;;;;;;5.24;62.79;99191.18;2261352;78;34520;-62
2021/03/13 05:32:51;;;;;;;7.67;3.52;;;;;;;5.23;62.80;99192.11;2271695;77;29499;-64
2021/03/13 05:35:54;;;;;;;7.58;4.37;;;;;;;5.21;63.25;99200.16;2299849;77;27622;-63
2021/03/13 05:38:56;;;;;;;8.63;4.12;;;;;;;5.23;63.10;99205.38;2303525;77;29860;-63
2021/03/13 05:41:58;;;;;;;12.03;5.05;;;;;;;5.24;63.00;99200.47;2292881;77;32028;-66
2021/03/13 05:45:04;;;;;;;8.10;4.03;;;;;;;5.23;63.01;99199.63;2301940;77;33612;-62
2021/03/13 05:48:08;;;;;;;6.90;4.28;;;;;;;5.26;63.07;99206.58;2300858;77;29068;-63
2021/03/13 05:51:13;;;;;;;8.28;4.35;;;;;;;5.28;63.05;99204.72;2290560;77;27713;-63
2021/03/13 05:54:17;;;;;;;7.45;4.10;;;;;;;5.30;63.00;99201.53;2288070;77;29825;-65
2021/03/13 05:57:20;;;;;;;8.55;4.35;;;;;;;5.34;63.01;99205.78;2261694;78;31676;-68
2021/03/13 06:00:23;;;;;;;7.85;4.03;;;;;;;5.38;63.01;99211.32;2294605;77;34573;-67
2021/03/13 06:03:27;;;;;;;12.15;5.05;;;;;;;5.44;63.11;99214.19;2299218;77;28883;-67
2021/03/13 06:06:32;;;;;;;11.30;4.83;;;;;;;5.49;63.12;99209.50;2301047;77;27792;-65
2021/03/13 06:09:33;;;;;;;8.40;4.65;;;;;;;5.57;63.09;99209.14;2271742;77;28681;-65
2021/03/13 06:12:36;;;;;;;10.68;4.58;;;;;;;5.63;63.03;99205.73;2296676;77;31214;-65
2021/03/13 06:15:38;;;;;;;7.47;4.40;;;;;;;5.69;62.89;99203.73;2301402;76;33166;-65
2021/03/13 06:18:52;;;;;;;7.95;4.58;;;;;;;5.76;62.76;99215.32;2298341;77;28845;-65
2021/03/13 06:21:54;;;;;;;9.35;4.33;;;;;;;5.86;62.88;99211.76;2301894;77;27540;-64
2021/03/13 06:25:18;;;;;;;9.43;4.70;;;;;;;5.96;62.78;99209.52;2278943;77;28046;-64
2021/03/13 06:28:20;;;;;;;9.35;3.98;;;;;;;6.00;62.50;99208.93;2265568;77;31120;-65
2021/03/13 06:31:28;;;;;;;13.15;5.03;;;;;;;6.00;62.38;99212.47;2302639;77;33591;-64
2021/03/13 06:34:30;;;;;;;11.75;4.67;;;;;;;6.01;62.34;99211.98;2301698;77;28855;-70
2021/03/13 06:37:33;;;;;;;8.85;4.22;;;;;;;6.02;62.27;99211.05;2265525;77;27558;-69
2021/03/13 06:40:37;;;;;;;8.38;4.08;;;;;;;6.19;62.37;99208.91;2261067;78;28739;-66
2021/03/13 06:43:41;;;;;;;9.95;4.62;;;;;;;6.44;62.33;99217.87;2261727;77;32093;-66
2021/03/13 06:46:46;;;;;;;8.25;3.90;;;;;;;6.73;62.47;99211.98;2263552;77;34125;-68
2021/03/13 06:49:53;;;;;;;11.45;6.35;;;;;;;7.00;62.15;99216.34;2259556;78;29279;-68
2021/03/13 06:53:11;;;;;;;10.75;4.70;;;;;;;7.26;61.60;99208.80;2295361;77;27662;-64
2021/03/13 06:56:14;;;;;;;8.03;4.42;;;;;;;7.55;61.24;99205.85;2279686;77;31150;-63
2021/03/13 06:59:31;;;;;;;13.58;4.20;;;;;;;7.92;60.83;99210.97;2302757;77;31124;-65
2021/03/13 07:02:38;;;;;;;12.05;4.17;;;;;;;8.25;60.85;99211.78;2263194;77;34042;-63
2021/03/13 07:05:43;;;;;;;8.85;4.28;;;;;;;8.59;60.10;99204.51;2271626;77;28924;-64
2021/03/13 07:08:47;;;;;;;6.08;3.58;;;;;;;8.89;59.59;99206.29;2266753;77;27682;-64
2021/03/13 07:11:50;;;;;;;8.05;4.10;;;;;;;9.21;59.27;99206.13;2261111;78;28871;-67
2021/03/13 07:14:54;;;;;;;12.93;5.50;;;;;;;9.49;58.58;99210.63;2261614;77;31583;-64
2021/03/13 07:18:00;;;;;;;9.00;2.70;;;;;;;9.77;58.57;99212.88;2305111;77;33136;-62
2021/03/13 07:21:06;;;;;;;6.53;3.12;;;;;;;10.05;57.79;99196.39;2276106;75;28855;-65
2021/03/13 07:24:16;;;;;;;3.98;2.85;;;;;;;10.31;57.15;99200.50;2251550;77;27744;-64
2021/03/13 07:27:20;;;;;;;8.45;4.10;;;;;;;10.56;56.40;99194.88;2288752;77;29955;-65
2021/03/13 07:30:23;;;;;;;7.57;4.20;;;;;;;10.76;55.63;99193.02;2307053;77;31029;-65
2021/03/13 07:33:27;;;;;;;7.85;3.58;;;;;;;10.97;56.17;99191.67;2283237;77;34107;-64
2021/03/13 07:36:30;;;;;;;10.60;4.58;;;;;;;11.18;55.88;99198.69;2286552;77;28859;-66
2021/03/13 07:39:48;;;;;;;8.45;3.58;;;;;;;11.39;55.57;99196.31;2265619;77;27658;-64
2021/03/13 07:42:53;;;;;;;12.30;6.30;;;;;;;11.56;55.25;99191.11;2270363;77;29993;-62
2021/03/13 07:45:56;;;;;;;17.62;6.78;;;;;;;11.78;54.94;99190.88;2283817;77;33503;-64
2021/03/13 07:48:58;;;;;;;8.80;4.30;;;;;;;12.02;54.07;99193.63;2302530;77;33163;-68
2021/03/13 07:52:01;;;;;;;8.35;3.15;;;;;;;12.19;54.12;99197.76;2267113;77;29585;-64
2021/03/13 07:55:06;;;;;;;7.62;3.70;;;;;;;12.39;53.75;99192.23;2264617;77;27765;-65
2021/03/13 07:58:11;;;;;;;11.25;5.60;;;;;;;12.58;53.42;99190.34;2264941;77;28827;-66
2021/03/13 08:01:14;;;;;;;9.78;4.30;;;;;;;12.74;53.17;99191.89;2264424;78;31662;-65
2021/03/13 08:04:41;;;;;;;6.15;2.98;;;;;;;12.88;52.86;99188.98;2275831;77;33965;-65
2021/03/13 08:08:03;;;;;;;5.85;2.10;;;;;;;13.00;52.63;99193.03;2214669;80;28868;-67
2021/03/13 08:11:07;;;;;;;8.18;2.58;;;;;;;13.10;52.30;99198.05;2190090;79;28292;-64
2021/03/13 08:14:16;;;;;;;7.43;2.70;;;;;;;13.22;51.54;99178.77;2209456;79;28881;-64
2021/03/13 08:17:17;;;;;;;5.40;2.77;;;;;;;13.31;51.03;99184.78;2183568;80;31154;-63
2021/03/13 08:20:29;;;;;;;4.55;2.00;;;;;;;13.39;51.14;99182.82;2188979;81;33074;-65
2021/03/13 08:23:54;;;;;;;3.20;1.65;;;;;;;13.48;49.88;99178.57;2178745;80;28858;-65
2021/03/13 08:27:00;;;;;;;4.70;2.55;;;;;;;13.40;49.88;99172.46;2200822;80;27649;-63
2021/03/13 08:30:20;;;;;;;6.60;2.37;;;;;;;13.47;50.01;99167.44;2212959;80;28863;-65
2021/03/13 08:33:27;;;;;;;3.65;2.30;;;;;;;13.50;50.01;99165.83;2204904;80;32370;-65
2021/03/13 08:36:46;;;;;;;2.25;1.60;;;;;;;13.49;49.66;99172.18;2200286;80;33103;-72
2021/03/13 08:39:49;;;;;;;7.92;2.12;;;;;;;13.43;49.90;99164.63;2178537;80;30110;-68
2021/03/13 08:42:51;;;;;;;5.95;2.60;;;;;;;13.32;49.56;99157.38;2191021;79;27784;-71
2021/03/13 08:45:53;;;;;;;3.10;1.90;;;;;;;13.25;49.55;99145.38;2189559;79;29730;-66
2021/03/13 08:48:59;;;;;;;5.00;1.95;;;;;;;13.18;48.01;99147.23;2189161;79;31236;-67
2021/03/13 08:52:15;;;;;;;5.20;2.55;;;;;;;13.10;48.90;99146.97;2226699;77;33062;-66
2021/03/13 08:55:20;;;;;;;;;;;;;;;13.02;49.04;99144.88;2202893;79;30046;-66
2021/03/13 08:58:42;;;;;;;6.03;3.15;;;;;;;12.98;49.13;99138.53;2188992;80;27677;-59
2021/03/13 09:02:04;;;;;;;4.28;2.67;;;;;;;12.95;48.81;99134.26;2192634;79;29717;-60
2021/03/13 09:05:22;;;;;;;8.03;5.03;;;;;;;12.86;48.63;99122.86;2228018;77;32392;-60
2021/03/13 09:08:24;;;;;;;5.92;3.27;;;;;;;12.84;48.11;99120.31;2224904;79;34060;-61
2021/03/13 09:11:27;;;;;;;7.08;4.30;;;;;;;12.82;48.95;99122.77;2227167;79;31245;-61
2021/03/13 09:14:29;;;;;;;5.05;3.33;;;;;;;12.84;48.47;99112.72;2228042;79;27727;-66
2021/03/13 09:17:34;;;;;;;8.93;3.47;;;;;;;12.83;48.76;99109.66;2211083;79;29089;-64
2021/03/13 09:20:40;;;;;;;6.50;1.60;;;;;;;12.86;48.62;99109.42;2210871;79;32076;-77
2021/03/13 09:23:42;;;;;;;2.22;1.57;;;;;;;12.84;48.37;99093.91;2227187;79;32456;-69
2021/03/13 09:26:52;;;;;;;2.52;1.72;;;;;;;12.78;48.36;99095.25;2227064;79;29753;-71
2021/03/13 09:29:56;;;;;;;1.77;1.30;;;;;;;12.80;48.72;99095.14;2221640;79;27613;-72
2021/03/13 09:32:58;;;;;;;3.33;1.50;;;;;;;12.90;48.43;99096.13;2188821;81;28809;-66
2021/03/13 09:36:11;;;;;;;3.83;1.82;;;;;;;12.88;47.84;99093.56;2196991;79;31039;-69
2021/03/13 09:39:24;;;;;;;2.40;1.47;;;;;;;12.81;47.69;99088.80;2213236;79;33181;-67
2021/03/13 09:42:28;;;;;;;5.25;1.90;;;;;;;12.80;47.90;99091.11;2189183;79;28859;-65
2021/03/13 09:45:31;;;;;;;3.17;1.92;;;;;;;12.82;48.00;99087.31;2205546;79;29885;-68
2021/03/13 09:48:33;;;;;;;1.72;1.62;;;;;;;12.83;47.83;99087.69;2200822;79;28823;-68
2021/03/13 09:51:35;;;;;;;3.87;1.52;;;;;;;12.78;47.10;99073.75;2207411;79;31134;-67
2021/03/13 09:54:37;;;;;;;6.10;2.80;;;;;;;12.72;47.56;99079.63;2208399;79;33394;-67
2021/03/13 09:57:44;;;;;;;6.97;2.87;;;;;;;12.75;48.07;99076.67;2217432;79;28934;-68
2021/03/13 10:00:46;;;;;;;5.58;2.50;;;;;;;12.82;48.21;99075.73;2188467;81;27685;-69
2021/03/13 10:03:49;;;;;;;4.95;1.80;;;;;;;12.88;48.32;99076.56;2188890;81;28825;-68
2021/03/13 10:06:51;;;;;;;3.52;2.02;;;;;;;12.93;47.97;99078.41;2205498;79;32014;-70
2021/03/13 10:10:00;;;;;;;6.75;1.72;;;;;;;12.96;48.20;99063.39;2202538;79;34058;-69
2021/03/13 10:13:04;;;;;;;4.35;2.30;;;;;;;12.99;47.33;99063.12;2209676;79;30085;-69
2021/03/13 10:16:13;;;;;;;2.58;1.25;;;;;;;12.99;47.59;99051.02;2225873;77;27649;-69
2021/03/13 10:19:37;;;;;;;15.75;6.15;;;;;;;13.03;47.98;99051.15;2227498;78;28896;-69
2021/03/13 10:22:39;;;;;;;7.30;4.75;;;;;;;13.07;47.37;99049.94;2205304;80;32231;-69
2021/03/13 10:25:57;;;;;;;7.67;5.20;;;;;;;13.10;46.92;99052.85;2276015;78;33115;-69
2021/03/13 10:28:59;;;;;;;6.47;2.50;;;;;;;12.97;47.29;99045.41;2222404;80;29153;-70
2021/03/13 10:32:03;;;;;;;6.53;3.05;;;;;;;12.95;47.74;99037.48;2222509;80;27643;-70
2021/03/13 10:35:13;;;;;;;3.75;1.47;;;;;;;13.02;47.48;99040.03;2222326;80;28910;-69
2021/03/13 10:38:19;;;;;;;2.85;1.62;;;;;;;13.08;47.74;99041.36;2180414;80;32174;-68
2021/03/13 10:41:23;;;;;;;10.60;2.08;;;;;;;13.20;47.89;99034.14;2174646;81;33346;-68
2021/03/13 10:44:28;;;;;;;3.02;1.70;;;;;;;13.31;47.95;99033.27;2208223;80;30201;-69
2021/03/13 10:47:30;;;;;;;4.53;1.92;;;;;;;13.34;47.72;99031.18;2221361;80;27703;-67
2021/03/13 10:50:35;;;;;;;4.80;1.98;;;;;;;13.36;47.52;99024.34;2221946;78;28817;-68
2021/03/13 10:53:40;;;;;;;4.20;2.47;;;;;;;13.36;47.54;99006.36;2229282;75;31145;-68
2021/03/13 10:56:44;;;;;;;3.40;1.77;;;;;;;13.35;47.41;99018.09;2275617;77;33157;-67
2021/03/13 10:59:49;;;;;;;5.43;3.37;;;;;;;13.27;47.08;99012.51;2260996;77;29216;-67
2021/03/13 11:02:52;;;;;;;;;;;;;;;13.04;46.97;99012.53;2263955;77;27586;-65
2021/03/13 11:06:01;;;;;;;2.50;1.62;;;;;;;12.82;47.59;99001.82;2287078;77;29289;-67
2021/03/13 11:09:11;;;;;;;6.20;2.65;;;;;;;12.71;47.77;98995.45;2261518;77;31570;-66
2021/03/13 11:12:14;;;;;;;6.30;3.30;;;;;;;12.65;48.01;98989.24;2260970;78;33110;-65
2021/03/13 11:15:16;;;;;;;6.75;2.58;;;;;;;12.63;48.31;98978.23;2278680;77;30463;-69
2021/03/13 11:18:19;;;;;;;7.47;3.75;;;;;;;12.66;48.42;98972.11;2271821;77;27722;-65
2021/03/13 11:21:24;;;;;;;5.65;2.92;;;;;;;12.65;48.39;98973.59;2294387;77;28795;-65
2021/03/13 11:24:26;;;;;;;11.95;6.33;;;;;;;12.59;48.47;98964.19;2260304;78;31141;-65
2021/03/13 11:27:32;;;;;;;20.05;10.75;;;;;;;12.57;48.78;98959.42;2260906;78;33086;-65
2021/03/13 11:30:36;;;;;;;21.45;11.90;;;;;;;12.57;48.54;98960.30;2261815;77;29042;-64
2021/03/13 11:33:38;;;;;;;63.80;34.08;;;;;;;12.58;48.97;98951.23;2296263;77;27726;-65
2021/03/13 11:36:41;;;;;;;104.32;51.18;;;;;;;12.59;48.99;98945.39;2302480;77;29790;-63
2021/03/13 11:39:44;;;;;;;53.17;21.48;;;;;;;12.66;49.09;98949.27;2301444;77;31176;-64
2021/03/13 11:42:46;;;;;;;25.72;11.55;;;;;;;12.70;49.15;98945.37;2279827;77;33288;-64
2021/03/13 11:45:48;;;;;;;27.13;10.00;;;;;;;12.72;49.01;98938.05;2283218;77;29225;-64
2021/03/13 11:48:50;;;;;;;6.15;2.70;;;;;;;12.75;49.03;98936.45;2269857;77;27729;-65
2021/03/13 11:51:54;;;;;;;8.28;4.35;;;;;;;12.75;48.77;98934.24;2290808;77;30185;-63
2021/03/13 11:54:57;;;;;;;23.12;7.15;;;;;;;12.61;48.63;98916.06;2277201;77;32468;-65
2021/03/13 11:58:07;;;;;;;37.60;10.53;;;;;;;12.64;49.08;98928.42;2260777;78;29090;-61
2021/03/13 12:01:11;;;;;;;32.63;12.13;;;;;;;12.55;48.79;98923.77;2261785;77;29540;-63
2021/03/13 12:04:13;;;;;;;19.23;7.87;;;;;;;12.43;48.86;98913.04;2301676;77;27598;-65
2021/03/13 12:07:15;;;;;;;45.40;12.75;;;;;;;12.34;49.10;98911.57;2261416;77;28862;-61
2021/03/13 12:10:19;;;;;;;51.00;18.77;;;;;;;12.21;49.22;98905.84;2291168;77;32000;-60
2021/03/13 12:13:21;;;;;;;51.53;19.98;;;;;;;12.13;49.49;98906.91;2302358;77;33958;-58
2021/03/13 12:16:24;;;;;;;24.85;8.68;;;;;;;12.08;50.03;98889.00;2276722;77;29588;-59
2021/03/13 12:19:26;;;;;;;22.65;6.60;;;;;;;12.03;49.77;98898.73;2263679;78;27607;-59
2021/03/13 12:22:29;;;;;;;37.78;12.78;;;;;;;11.93;50.12;98892.35;2265003;77;28818;-59
2021/03/13 12:25:31;;;;;;;26.90;11.63;;;;;;;11.84;50.17;98893.92;2284835;77;32555;-62
2021/03/13 12:28:35;;;;;;;21.93;10.13;;;;;;;11.77;50.45;98883.28;2281383;77;33122;-60
2021/03/13 12:31:39;;;;;;;6.70;3.55;;;;;;;11.73;50.64;98869.77;2295499;77;29151;-63
2021/03/13 12:34:41;;;;;;;21.85;7.60;;;;;;;11.70;50.75;98863.66;2179667;81;27850;-62
2021/03/13 12:37:44;;;;;;;29.35;10.88;;;;;;;11.57;50.76;98854.86;2194358;79;29953;-60
2021/03/13 12:40:46;;;;;;;20.72;7.87;;;;;;;11.48;51.03;98856.89;2185531;81;31129;-60
2021/03/13 12:43:49;;;;;;;20.52;6.30;;;;;;;11.39;51.18;98849.06;2187509;81;33202;-62
2021/03/13 12:46:51;;;;;;;12.28;4.65;;;;;;;11.33;51.52;98842.85;2179905;81;29235;-60
2021/03/13 12:49:54;;;;;;;16.23;4.65;;;;;;;11.30;51.77;98837.22;2193349;79;27866;-63
2021/03/13 12:52:57;;;;;;;12.25;4.15;;;;;;;11.31;51.90;98834.91;2189034;81;30201;-62
2021/03/13 12:55:59;;;;;;;9.50;3.30;;;;;;;11.32;52.14;98829.08;2191190;80;32089;-60
2021/03/13 12:59:01;;;;;;;10.43;3.37;;;;;;;11.32;52.26;98823.22;2184960;81;33140;-62
2021/03/13 13:02:03;;;;;;;8.95;4.72;;;;;;;11.32;52.37;98819.69;2183418;81;31177;-62
2021/03/13 13:05:07;;;;;;;10.43;4.45;;;;;;;11.32;52.69;98810.31;2183149;81;27768;-61
2021/03/13 13:08:09;;;;;;;14.70;6.67;;;;;;;11.34;52.80;98812.36;2194803;80;28795;-63
2021/03/13 13:11:12;;;;;;;8.05;4.83;;;;;;;11.34;52.73;98803.84;2188287;81;33434;-60
2021/03/13 13:14:14;;;;;;;9.38;4.97;;;;;;;11.31;52.82;98801.90;2190439;81;33119;-60
2021/03/13 13:17:16;;;;;;;8.43;4.75;;;;;;;11.34;52.92;98802.97;2188716;81;29173;-60
2021/03/13 13:20:21;;;;;;;7.28;3.60;;;;;;;11.33;53.02;98787.39;2178993;81;27885;-61
2021/03/13 13:23:24;;;;;;;16.20;6.95;;;;;;;11.34;53.27;98781.06;2179243;81;29231;-61
2021/03/13 13:26:29;;;;;;;14.75;5.33;;;;;;;11.45;53.23;98780.23;2180264;81;31141;-63
2021/03/13 13:29:31;;;;;;;8.95;3.33;;;;;;;11.51;53.09;98781.07;2177193;81;33123;-60
2021/03/13 13:32:36;;;;;;;18.57;7.20;;;;;;;11.54;52.91;98774.13;2179478;81;29929;-62
2021/03/13 13:35:42;;;;;;;9.85;4.53;;;;;;;11.59;53.03;98769.73;2207640;79;27727;-61
2021/03/13 13:38:49;;;;;;;9.58;3.90;;;;;;;11.63;53.09;98765.01;2264103;77;28872;-60
2021/03/13 13:41:51;;;;;;;20.60;6.92;;;;;;;11.67;52.96;98757.94;2264029;77;32100;-58
2021/03/13 13:44:55;;;;;;;11.25;4.95;;;;;;;11.74;53.04;98751.59;2289187;77;35261;-59
2021/03/13 13:47:57;;;;;;;16.48;5.62;;;;;;;11.76;52.69;98743.41;2280561;77;29378;-58
2021/03/13 13:51:00;;;;;;;12.82;5.80;;;;;;;11.78;52.71;98745.02;2273609;77;27738;-59
2021/03/13 13:54:04;;;;;;;15.93;5.15;;;;;;;11.82;52.68;98738.91;2300720;77;29057;-59
2021/03/13 13:57:07;;;;;;;14.98;5.17;;;;;;;11.85;52.73;98736.81;2301882;77;31122;-58
2021/03/13 14:00:14;;;;;;;20.85;7.85;;;;;;;11.88;52.55;98735.73;2276395;77;33106;-60
2021/03/13 14:03:16;;;;;;;15.85;6.10;;;;;;;11.89;52.64;98730.73;2281534;77;29119;-58
2021/03/13 14:06:18;;;;;;;17.05;6.83;;;;;;;11.93;52.57;98725.97;2281955;77;27602;-58
2021/03/13 14:09:20;;;;;;;13.13;5.87;;;;;;;11.96;52.60;98735.12;2265554;77;28808;-58
2021/03/13 14:12:23;;;;;;;16.20;6.65;;;;;;;11.91;52.28;98725.23;2302613;77;31120;-59
2021/03/13 14:15:25;;;;;;;12.10;5.33;;;;;;;11.84;52.06;98724.38;2302613;77;33043;-58
2021/03/13 14:18:30;;;;;;;30.62;12.85;;;;;;;11.74;52.05;98715.38;2296172;77;29217;-57
2021/03/13 14:21:32;;;;;;;32.85;14.68;;;;;;;11.69;52.60;98710.85;2305716;77;27684;-63
2021/03/13 14:24:37;;;;;;;16.20;8.43;;;;;;;11.62;52.59;98699.77;2306832;77;28104;-65
2021/03/13 14:27:41;;;;;;;15.83;7.17;;;;;;;11.55;52.75;98695.88;2290146;77;31190;-65
2021/03/13 14:30:50;;;;;;;18.27;8.13;;;;;;;11.50;52.76;98689.52;2303739;77;33062;-67
2021/03/13 14:33:53;;;;;;;11.85;4.83;;;;;;;11.44;52.57;98684.66;2276737;75;30120;-63